Pinetown, South Africa
Current Conditions -  °F | °C
As of 2:00 AM on Saturday 22 Nov 2014 (Local Time) from FALE Reporting Station
Broken Clouds Broken Clouds  
Wind Chill: 68°   Ceiling: 4000
Heat Index: 68°   Visibility: 6mi
Dew Point: 63°   Wind: 3mph
Humidity: 83%   Direction: 10°N
Pressure: 30.06"   Gusts: NA
Location:  29.76°S, 30.83°E
Report Text: FALE 220000Z 01003KT 9999 FEW018 BKN040 20/17 Q1018 NOSIG
Loading
Personal Weather Stations






























Interactive Weather Map New forecast layout! Learn more

10-Day Weather Forecast

Advertisements
Track Severe Weather on mobile